Time,TemperatureF,DewpointF,PressureIn,WindDirection,WindDirectionDegrees,WindSpeedMPH,WindSpeedGustMPH,Humidity,HourlyPrecipIn,Conditions,Clouds,dailyrainin,SoftwareType,DateUTC
2013-07-10 00:01:00,66.0,34.0,-100.00,NNW,339,12.0,14.0,30,0.00,,,-99.99,,2013-07-10 06:01:00,
2013-07-10 00:11:00,64.0,34.0,-100.00,NNE,20,11.0,12.0,32,0.00,,,-99.99,,2013-07-10 06:11:00,
2013-07-10 00:32:00,63.0,34.0,-100.00,North,4,13.0,14.0,33,0.00,,,-99.99,,2013-07-10 06:32:00,
2013-07-10 00:42:00,64.0,34.0,-100.00,North,352,11.0,12.0,33,0.00,,,-99.99,,2013-07-10 06:42:00,
2013-07-10 01:01:00,63.0,34.0,-100.00,North,7,9.0,10.0,34,0.00,,,-99.99,,2013-07-10 07:01:00,
2013-07-10 01:11:00,61.0,34.0,-100.00,North,354,7.0,9.0,36,0.00,,,-99.99,,2013-07-10 07:11:00,
2013-07-10 01:33:00,64.0,34.0,-100.00,North,8,11.0,12.0,33,0.00,,,-99.99,,2013-07-10 07:33:00,
2013-07-10 02:01:00,62.0,33.0,-100.00,North,3,5.0,6.0,34,0.00,,,-99.99,,2013-07-10 08:01:00,
2013-07-10 02:42:00,56.0,33.0,-100.00,NNW,339,2.0,4.0,40,0.00,,,-99.99,,2013-07-10 08:42:00,
2013-07-10 03:12:00,55.0,33.0,-100.00,NNW,340,3.0,4.0,44,0.00,,,-99.99,,2013-07-10 09:12:00,
2013-07-10 04:51:00,-999.0,-99.9,-100.00,NNW,344,4.0,5.0,-999,-99.99,,,-99.99,,2013-07-10 10:51:00,
2013-07-10 05:00:00,-999.0,-99.9,-100.00,North,357,4.0,5.0,-999,-99.99,,,-99.99,,2013-07-10 11:00:00,
2013-07-10 05:33:00,54.0,34.0,-100.00,NE,52,1.0,2.0,46,0.00,,,-99.99,,2013-07-10 11:33:00,
2013-07-10 05:43:00,55.0,34.0,-100.00,NW,326,3.0,4.0,44,0.00,,,-99.99,,2013-07-10 11:43:00,
2013-07-10 06:01:00,49.0,34.0,-100.00,NW,315,0.0,0.0,57,0.00,,,-99.99,,2013-07-10 12:01:00,
2013-07-10 06:43:00,51.0,35.0,-100.00,NW,323,4.0,5.0,52,0.00,,,-99.99,,2013-07-10 12:43:00,
2013-07-10 08:43:00,69.0,35.0,-100.00,North,349,0.0,1.0,28,0.00,,,-99.99,,2013-07-10 14:43:00,
2013-07-10 09:11:00,69.0,33.0,-100.00,South,188,4.0,6.0,26,0.00,,,-99.99,,2013-07-10 15:11:00,
2013-07-10 09:22:00,70.0,34.0,-100.00,SSW,210,3.0,6.0,27,0.00,,,-99.99,,2013-07-10 15:22:00,
2013-07-10 09:42:00,71.0,32.0,-100.00,WSW,246,7.0,9.0,24,0.00,,,-99.99,,2013-07-10 15:42:00,
2013-07-10 11:02:00,74.0,28.0,-100.00,SSW,206,7.0,9.0,18,0.00,,,-99.99,,2013-07-10 17:02:00,
2013-07-10 11:42:00,75.0,29.0,-100.00,SSW,203,7.0,12.0,18,0.00,,,-99.99,,2013-07-10 17:42:00,
2013-07-10 12:44:00,75.0,25.0,-100.00,SW,230,9.0,11.0,16,0.00,,,-99.99,,2013-07-10 18:44:00,
2013-07-10 12:52:00,74.0,26.0,-100.00,WSW,237,14.0,17.0,17,0.00,,,-99.99,,2013-07-10 18:52:00,
2013-07-10 13:01:00,76.0,26.0,-100.00,WSW,240,12.0,15.0,15,0.00,,,-99.99,,2013-07-10 19:01:00,
2013-07-10 13:11:00,77.0,26.0,-100.00,West,267,5.0,7.0,15,0.00,,,-99.99,,2013-07-10 19:11:00,
2013-07-10 13:21:00,75.0,24.0,-100.00,WNW,291,8.0,12.0,15,0.00,,,-99.99,,2013-07-10 19:21:00,
2013-07-10 13:42:00,76.0,25.0,-100.00,SW,234,12.0,14.0,15,0.00,,,-99.99,,2013-07-10 19:42:00,
2013-07-10 14:22:00,77.0,24.0,-100.00,WSW,256,11.0,17.0,14,0.00,,,-99.99,,2013-07-10 20:22:00,
2013-07-10 14:32:00,77.0,25.0,-100.00,WSW,256,12.0,16.0,14,0.00,,,-99.99,,2013-07-10 20:32:00,
2013-07-10 14:43:00,77.0,24.0,-100.00,SSW,199,9.0,12.0,14,0.00,,,-99.99,,2013-07-10 20:43:00,
2013-07-10 15:01:00,79.0,23.0,-100.00,SW,234,15.0,20.0,13,0.00,,,-99.99,,2013-07-10 21:01:00,
2013-07-10 15:11:00,78.0,26.0,-100.00,WNW,287,7.0,11.0,15,0.00,,,-99.99,,2013-07-10 21:11:00,
2013-07-10 15:22:00,78.0,23.0,-100.00,SW,216,13.0,21.0,13,0.00,,,-99.99,,2013-07-10 21:22:00,
2013-07-10 15:41:00,78.0,22.0,-100.00,SSE,167,9.0,14.0,13,0.00,,,-99.99,,2013-07-10 21:41:00,
2013-07-10 16:01:00,78.0,23.0,-100.00,SW,223,9.0,14.0,13,0.00,,,-99.99,,2013-07-10 22:01:00,
2013-07-10 16:11:00,79.0,23.0,-100.00,SW,227,11.0,17.0,13,0.00,,,-99.99,,2013-07-10 22:11:00,
2013-07-10 16:42:00,80.0,23.0,-100.00,South,176,4.0,7.0,12,0.00,,,-99.99,,2013-07-10 22:42:00,
2013-07-10 17:01:00,79.0,23.0,-100.00,WSW,243,13.0,22.0,12,0.00,,,-99.99,,2013-07-10 23:01:00,
2013-07-10 17:11:00,80.0,24.0,-100.00,WSW,239,6.0,12.0,12,0.00,,,-99.99,,2013-07-10 23:11:00,
2013-07-10 18:01:00,79.0,24.0,-100.00,SW,220,4.0,6.0,13,0.00,,,-99.99,,2013-07-11 00:01:00,
2013-07-10 18:42:00,79.0,24.0,-100.00,SW,215,9.0,13.0,13,0.00,,,-99.99,,2013-07-11 00:42:00,
2013-07-10 19:01:00,80.0,23.0,-100.00,West,264,4.0,6.0,12,0.00,,,-99.99,,2013-07-11 01:01:00,
2013-07-10 19:11:00,79.0,26.0,-100.00,NNE,16,6.0,11.0,14,0.00,,,-99.99,,2013-07-11 01:11:00,
2013-07-10 19:43:00,77.0,25.0,-100.00,NW,316,9.0,12.0,15,0.00,,,-99.99,,2013-07-11 01:43:00,
2013-07-10 20:11:00,77.0,25.0,-100.00,NNE,25,9.0,11.0,15,0.00,,,-99.99,,2013-07-11 02:11:00,
2013-07-10 20:43:00,73.0,26.0,-100.00,NNW,342,6.0,7.0,17,0.00,,,-99.99,,2013-07-11 02:43:00,
2013-07-10 21:42:00,65.0,26.0,-100.00,NNW,347,7.0,9.0,22,0.00,,,-99.99,,2013-07-11 03:42:00,
2013-07-10 22:12:00,66.0,24.0,-100.00,NNW,330,7.0,7.0,20,0.00,,,-99.99,,2013-07-11 04:12:00,
2013-07-10 22:42:00,65.0,24.0,-100.00,North,6,5.0,6.0,20,0.00,,,-99.99,,2013-07-11 04:42:00,
2013-07-10 23:01:00,67.0,23.0,-100.00,North,10,5.0,6.0,19,0.00,,,-99.99,,2013-07-11 05:01:00,
2013-07-10 23:32:00,67.0,24.0,-100.00,NNW,346,8.0,9.0,19,0.00,,,-99.99,,2013-07-11 05:32:00,
2013-07-10 23:43:00,66.0,24.0,-100.00,North,0,7.0,9.0,20,0.00,,,-99.99,,2013-07-11 05:43:00,